Time;durP1;ratioP1;P1;durP2;ratioP2;P2;SDS_P1;SDS_P2;PMS_P1;PMS_P2;Temp;Humidity;BMP_temperature;BMP_pressure;BME280_temperature;BME280_humidity;BME280_pressure;Samples;Min_cycle;Max_cycle;Signal;HPM_P1;HPM_P2
2024/03/15 00:00:11;;;;;;;10.20;10.00;;;;;;;;;;4960444;28;20600;-72
2024/03/15 00:02:39;;;;;;;9.80;9.60;;;;;;;;;;4955119;28;20512;-71
2024/03/15 00:05:08;;;;;;;10.20;10.00;;;;;;;;;;4981081;28;20472;-71
2024/03/15 00:07:35;;;;;;;9.93;9.73;;;;;;;;;;4961752;28;20476;-72
2024/03/15 00:10:03;;;;;;;10.43;10.23;;;;;;;;;;4962253;28;20552;-72
2024/03/15 00:12:30;;;;;;;10.73;10.47;;;;;;;;;;4959824;28;20502;-72
2024/03/15 00:14:57;;;;;;;10.03;9.83;;;;;;;;;;4956234;28;21048;-71
2024/03/15 00:17:27;;;;;;;10.40;10.20;;;;;;;;;;4960451;28;20709;-73
2024/03/15 00:19:55;;;;;;;10.60;10.40;;;;;;;;;;4952763;28;20496;-70
2024/03/15 00:22:23;;;;;;;10.70;10.43;;;;;;;;;;4961998;28;20933;-71
2024/03/15 00:24:50;;;;;;;10.60;10.40;;;;;;;;;;4953562;28;20467;-69
2024/03/15 00:27:18;;;;;;;10.40;10.20;;;;;;;;;;4973046;28;20470;-70
2024/03/15 00:29:46;;;;;;;10.73;10.47;;;;;;;;;;4959512;28;20474;-71
2024/03/15 00:32:14;;;;;;;11.10;10.80;;;;;;;;;;4985275;28;20528;-71
2024/03/15 00:34:41;;;;;;;10.60;10.40;;;;;;;;;;4960079;28;20474;-72
2024/03/15 00:37:09;;;;;;;11.10;10.80;;;;;;;;;;4962049;28;20476;-70
2024/03/15 00:39:36;;;;;;;10.60;10.40;;;;;;;;;;4961653;28;20889;-71
2024/03/15 00:42:03;;;;;;;11.00;10.70;;;;;;;;;;4966796;28;20474;-71
2024/03/15 00:44:32;;;;;;;11.23;10.93;;;;;;;;;;4964382;28;20470;-71
2024/03/15 00:46:58;;;;;;;11.37;11.07;;;;;;;;;;4971035;28;20490;-71
2024/03/15 00:49:25;;;;;;;11.50;11.20;;;;;;;;;;4969732;28;20550;-72
2024/03/15 00:51:52;;;;;;;12.07;11.77;;;;;;;;;;4966387;28;20573;-71
2024/03/15 00:54:22;;;;;;;11.57;11.27;;;;;;;;;;4959926;28;20498;-72
2024/03/15 00:56:49;;;;;;;11.73;11.43;;;;;;;;;;4968751;28;20565;-71
2024/03/15 00:59:17;;;;;;;12.13;11.83;;;;;;;;;;4965436;28;20525;-72
2024/03/15 01:01:44;;;;;;;11.97;11.67;;;;;;;;;;4935252;28;20517;-71
2024/03/15 01:04:13;;;;;;;12.17;11.87;;;;;;;;;;4932854;28;20517;-73
2024/03/15 01:06:40;;;;;;;12.33;12.03;;;;;;;;;;4931876;28;21279;-72
2024/03/15 01:09:08;;;;;;;12.90;12.50;;;;;;;;;;4945871;28;20505;-72
2024/03/15 01:11:35;;;;;;;12.53;12.13;;;;;;;;;;4932523;28;20514;-71
2024/03/15 01:14:04;;;;;;;12.73;12.33;;;;;;;;;;4931753;28;20518;-72
2024/03/15 01:16:31;;;;;;;12.53;12.13;;;;;;;;;;4931504;28;20481;-72
2024/03/15 01:19:00;;;;;;;12.53;12.13;;;;;;;;;;4932690;28;20811;-72
2024/03/15 01:21:27;;;;;;;12.47;12.17;;;;;;;;;;4931753;28;20472;-72
2024/03/15 01:23:55;;;;;;;12.30;12.00;;;;;;;;;;4932072;28;20474;-72
2024/03/15 01:26:22;;;;;;;12.17;11.87;;;;;;;;;;4947979;28;20474;-72
2024/03/15 01:28:49;;;;;;;12.37;12.07;;;;;;;;;;4930929;28;21091;-71
2024/03/15 01:31:17;;;;;;;12.30;12.00;;;;;;;;;;4931466;28;20546;-72
2024/03/15 01:33:46;;;;;;;12.27;11.97;;;;;;;;;;4929357;28;20495;-72
2024/03/15 01:36:14;;;;;;;13.23;12.83;;;;;;;;;;4928060;28;20963;-72
2024/03/15 01:38:41;;;;;;;12.30;12.00;;;;;;;;;;4929944;28;20487;-72
2024/03/15 01:41:08;;;;;;;12.63;12.23;;;;;;;;;;4946429;28;20916;-71
2024/03/15 01:43:36;;;;;;;12.73;12.33;;;;;;;;;;4945037;28;20550;-72
2024/03/15 01:46:03;;;;;;;12.60;12.20;;;;;;;;;;4930415;28;20471;-72
2024/03/15 01:48:30;;;;;;;12.10;11.80;;;;;;;;;;4946334;28;20482;-72
2024/03/15 01:50:57;;;;;;;12.80;12.40;;;;;;;;;;4931839;28;20804;-72
2024/03/15 01:53:25;;;;;;;12.83;12.43;;;;;;;;;;4946298;28;20621;-72
2024/03/15 01:55:52;;;;;;;12.67;12.27;;;;;;;;;;4931043;28;20517;-73
2024/03/15 01:58:20;;;;;;;12.67;12.27;;;;;;;;;;4931460;28;20475;-71
2024/03/15 02:00:47;;;;;;;12.47;12.13;;;;;;;;;;4946213;28;20494;-72
2024/03/15 02:03:14;;;;;;;12.60;12.20;;;;;;;;;;4967926;28;20519;-72
2024/03/15 02:05:43;;;;;;;12.50;12.17;;;;;;;;;;4965700;28;20477;-71
2024/03/15 02:08:13;;;;;;;12.17;11.87;;;;;;;;;;4964896;28;20465;-71
2024/03/15 02:10:40;;;;;;;12.70;12.30;;;;;;;;;;4955712;28;20467;-72
2024/03/15 02:13:07;;;;;;;12.70;12.30;;;;;;;;;;4954839;28;20505;-72
2024/03/15 02:15:34;;;;;;;11.90;11.60;;;;;;;;;;4957812;28;20470;-72
2024/03/15 02:18:02;;;;;;;12.23;11.93;;;;;;;;;;4965411;28;20525;-72
2024/03/15 02:20:29;;;;;;;12.70;12.30;;;;;;;;;;4964420;28;20999;-72
2024/03/15 02:22:58;;;;;;;12.20;11.90;;;;;;;;;;4976733;28;20474;-72
2024/03/15 02:25:25;;;;;;;12.73;12.33;;;;;;;;;;4951229;28;20475;-72
2024/03/15 02:27:52;;;;;;;12.77;12.37;;;;;;;;;;4972567;28;20469;-72
2024/03/15 02:30:20;;;;;;;11.80;11.50;;;;;;;;;;4968180;28;20463;-73
2024/03/15 02:32:47;;;;;;;12.40;12.10;;;;;;;;;;4977129;28;20535;-72
2024/03/15 02:35:15;;;;;;;12.10;11.80;;;;;;;;;;4969320;28;20471;-73
2024/03/15 02:37:42;;;;;;;12.80;12.40;;;;;;;;;;4965953;28;20526;-71
2024/03/15 02:40:09;;;;;;;12.80;12.40;;;;;;;;;;4964732;28;20451;-72
2024/03/15 02:42:37;;;;;;;12.33;12.03;;;;;;;;;;4964108;28;20471;-71
2024/03/15 02:45:05;;;;;;;13.10;12.70;;;;;;;;;;4960772;28;20473;-72
2024/03/15 02:47:32;;;;;;;12.97;12.57;;;;;;;;;;4956749;28;20466;-72
2024/03/15 02:49:59;;;;;;;12.67;12.27;;;;;;;;;;4960184;28;20476;-73
2024/03/15 02:52:28;;;;;;;12.57;12.17;;;;;;;;;;4976126;28;20475;-72
2024/03/15 02:54:56;;;;;;;12.60;12.20;;;;;;;;;;4966370;28;20512;-72
2024/03/15 02:57:24;;;;;;;12.23;11.93;;;;;;;;;;4965057;28;21017;-72
2024/03/15 02:59:51;;;;;;;11.97;11.67;;;;;;;;;;4968151;28;20549;-72
2024/03/15 03:02:18;;;;;;;12.53;12.17;;;;;;;;;;4967532;28;20559;-72
2024/03/15 03:04:46;;;;;;;12.97;12.57;;;;;;;;;;4963431;28;20558;-72
2024/03/15 03:07:13;;;;;;;12.57;12.23;;;;;;;;;;4970413;28;20469;-72
2024/03/15 03:09:41;;;;;;;12.13;11.83;;;;;;;;;;4961334;28;20478;-72
2024/03/15 03:12:09;;;;;;;12.63;12.23;;;;;;;;;;4965251;28;20557;-72
2024/03/15 03:14:36;;;;;;;12.80;12.40;;;;;;;;;;4966455;28;20495;-72
2024/03/15 03:17:03;;;;;;;12.93;12.53;;;;;;;;;;4964719;28;20476;-72
2024/03/15 03:19:31;;;;;;;11.70;11.40;;;;;;;;;;4967101;28;20503;-72
2024/03/15 03:21:59;;;;;;;12.50;12.10;;;;;;;;;;4959306;28;20475;-72
2024/03/15 03:24:26;;;;;;;12.60;12.20;;;;;;;;;;4962418;28;20469;-72
2024/03/15 03:26:54;;;;;;;13.00;12.60;;;;;;;;;;4964507;28;20460;-72
2024/03/15 03:29:22;;;;;;;12.57;12.17;;;;;;;;;;4964017;28;20494;-72
2024/03/15 03:31:49;;;;;;;12.63;12.23;;;;;;;;;;4975977;28;20460;-72
2024/03/15 03:34:18;;;;;;;12.80;12.40;;;;;;;;;;4959724;28;20499;-72
2024/03/15 03:36:45;;;;;;;12.20;11.90;;;;;;;;;;4959279;28;20472;-73
2024/03/15 03:39:13;;;;;;;12.60;12.20;;;;;;;;;;4961040;28;20470;-72
2024/03/15 03:41:40;;;;;;;12.77;12.37;;;;;;;;;;4964199;28;20465;-72
2024/03/15 03:44:08;;;;;;;13.00;12.60;;;;;;;;;;4972059;28;20470;-73
2024/03/15 03:46:35;;;;;;;13.20;12.80;;;;;;;;;;4969427;28;20467;-72
2024/03/15 03:49:02;;;;;;;12.40;12.00;;;;;;;;;;4962955;28;20472;-73
2024/03/15 03:51:29;;;;;;;12.20;11.90;;;;;;;;;;4960785;28;20580;-72
2024/03/15 03:53:57;;;;;;;12.83;12.43;;;;;;;;;;4960033;28;20526;-72
2024/03/15 03:56:24;;;;;;;12.80;12.40;;;;;;;;;;4960664;28;21159;-73
2024/03/15 03:58:52;;;;;;;12.07;11.77;;;;;;;;;;4961567;28;20462;-73
2024/03/15 04:01:19;;;;;;;13.23;12.83;;;;;;;;;;4964623;28;20487;-72
2024/03/15 04:03:48;;;;;;;12.30;12.00;;;;;;;;;;4965234;28;20769;-72
2024/03/15 04:06:16;;;;;;;12.93;12.53;;;;;;;;;;4961174;28;20566;-72
2024/03/15 04:08:43;;;;;;;13.03;12.63;;;;;;;;;;4958723;28;20698;-72
2024/03/15 04:11:10;;;;;;;12.70;12.30;;;;;;;;;;4957544;28;20517;-74
2024/03/15 04:13:37;;;;;;;12.93;12.53;;;;;;;;;;4965002;28;20581;-72
2024/03/15 04:16:06;;;;;;;12.77;12.37;;;;;;;;;;4967435;28;20464;-72
2024/03/15 04:18:34;;;;;;;13.23;12.83;;;;;;;;;;4963302;28;20466;-72
2024/03/15 04:21:01;;;;;;;13.20;12.80;;;;;;;;;;4958774;28;20491;-72
2024/03/15 04:23:30;;;;;;;13.10;12.70;;;;;;;;;;4963098;28;20501;-72
2024/03/15 04:25:58;;;;;;;12.80;12.40;;;;;;;;;;4974819;28;20469;-72
2024/03/15 04:28:25;;;;;;;12.80;12.40;;;;;;;;;;4969394;28;20467;-71
2024/03/15 04:30:54;;;;;;;12.70;12.30;;;;;;;;;;4960524;28;20463;-72
2024/03/15 04:33:22;;;;;;;12.97;12.57;;;;;;;;;;4963381;28;20486;-72
2024/03/15 04:35:50;;;;;;;12.63;12.23;;;;;;;;;;4977015;28;20474;-72
2024/03/15 04:38:18;;;;;;;12.90;12.50;;;;;;;;;;4962300;28;20474;-73
2024/03/15 04:40:46;;;;;;;12.70;12.30;;;;;;;;;;4961725;28;20977;-72
2024/03/15 04:43:13;;;;;;;12.87;12.47;;;;;;;;;;4963612;28;20475;-72
2024/03/15 04:45:40;;;;;;;13.23;12.83;;;;;;;;;;4968195;28;20468;-72
2024/03/15 04:48:07;;;;;;;12.57;12.17;;;;;;;;;;4974743;28;20466;-72
2024/03/15 04:50:35;;;;;;;12.77;12.37;;;;;;;;;;4970944;28;20468;-72
2024/03/15 04:53:03;;;;;;;12.60;12.20;;;;;;;;;;4959313;28;20557;-72
2024/03/15 04:55:30;;;;;;;12.33;12.03;;;;;;;;;;4965027;28;20499;-72
2024/03/15 04:57:57;;;;;;;12.67;12.27;;;;;;;;;;4962520;28;20462;-72
2024/03/15 05:00:25;;;;;;;12.20;11.90;;;;;;;;;;4972784;28;20475;-72
2024/03/15 05:02:52;;;;;;;12.50;12.10;;;;;;;;;;4964949;28;20473;-71
2024/03/15 05:05:21;;;;;;;12.20;11.90;;;;;;;;;;4965177;28;20838;-72
2024/03/15 05:07:48;;;;;;;12.50;12.10;;;;;;;;;;4959137;28;20464;-72
2024/03/15 05:10:16;;;;;;;12.60;12.20;;;;;;;;;;4959508;28;20464;-72
2024/03/15 05:12:44;;;;;;;12.50;12.10;;;;;;;;;;4958067;28;20478;-72
2024/03/15 05:15:12;;;;;;;13.03;12.63;;;;;;;;;;4963189;28;20490;-71
2024/03/15 05:17:39;;;;;;;13.50;13.10;;;;;;;;;;4971665;28;20835;-72
2024/03/15 05:20:12;;;;;;;13.17;12.77;;;;;;;;;;4959268;28;20803;-72
2024/03/15 05:22:40;;;;;;;12.73;12.33;;;;;;;;;;4965725;28;20484;-72
2024/03/15 05:25:09;;;;;;;12.60;12.20;;;;;;;;;;4962586;28;20503;-72
2024/03/15 05:27:36;;;;;;;12.67;12.27;;;;;;;;;;4955802;28;20977;-72
2024/03/15 05:30:05;;;;;;;12.40;12.00;;;;;;;;;;4964174;28;20467;-72
2024/03/15 05:32:32;;;;;;;12.77;12.37;;;;;;;;;;4974077;28;20469;-72
2024/03/15 05:35:00;;;;;;;12.97;12.57;;;;;;;;;;4961029;28;20494;-72
2024/03/15 05:37:27;;;;;;;13.23;12.83;;;;;;;;;;4969984;28;20480;-72
2024/03/15 05:39:55;;;;;;;12.53;12.13;;;;;;;;;;4964122;28;20966;-72
2024/03/15 05:42:22;;;;;;;13.10;12.70;;;;;;;;;;4954547;28;21046;-73
2024/03/15 05:44:49;;;;;;;12.90;12.50;;;;;;;;;;4964390;28;20470;-73
2024/03/15 05:47:17;;;;;;;12.77;12.37;;;;;;;;;;4962050;28;20498;-72
2024/03/15 05:49:45;;;;;;;12.20;11.90;;;;;;;;;;4959947;28;20476;-72
2024/03/15 05:52:12;;;;;;;12.53;12.13;;;;;;;;;;4972807;28;20840;-73
2024/03/15 05:54:40;;;;;;;12.80;12.40;;;;;;;;;;4962000;28;20492;-72
2024/03/15 05:57:08;;;;;;;12.63;12.23;;;;;;;;;;4961441;28;20570;-72
2024/03/15 05:59:35;;;;;;;12.83;12.43;;;;;;;;;;4962638;28;21056;-73
2024/03/15 06:02:02;;;;;;;13.00;12.60;;;;;;;;;;4964504;28;20856;-72
2024/03/15 06:04:32;;;;;;;12.43;12.10;;;;;;;;;;4961007;28;21052;-73
2024/03/15 06:07:00;;;;;;;12.67;12.27;;;;;;;;;;4964958;28;20472;-73
2024/03/15 06:09:29;;;;;;;12.53;12.13;;;;;;;;;;4961391;28;20491;-73
2024/03/15 06:11:56;;;;;;;12.83;12.43;;;;;;;;;;4976992;28;20821;-72
2024/03/15 06:14:25;;;;;;;12.20;11.90;;;;;;;;;;4965570;28;20524;-72
2024/03/15 06:16:52;;;;;;;12.40;12.00;;;;;;;;;;4975172;28;20648;-72
2024/03/15 06:19:22;;;;;;;12.40;12.00;;;;;;;;;;4965141;28;20465;-72
2024/03/15 06:21:49;;;;;;;12.60;12.20;;;;;;;;;;4964577;28;20509;-72
2024/03/15 06:24:19;;;;;;;12.40;12.00;;;;;;;;;;4953907;28;20483;-73
2024/03/15 06:26:47;;;;;;;12.87;12.47;;;;;;;;;;4968823;28;20465;-72
2024/03/15 06:29:16;;;;;;;12.70;12.30;;;;;;;;;;4975233;28;20958;-72
2024/03/15 06:31:43;;;;;;;12.50;12.10;;;;;;;;;;4968052;28;20473;-72
2024/03/15 06:34:12;;;;;;;12.50;12.10;;;;;;;;;;4959166;28;20492;-72
2024/03/15 06:36:44;;;;;;;12.80;12.40;;;;;;;;;;4970002;28;20947;-73
2024/03/15 06:39:25;;;;;;;11.87;11.57;;;;;;;;;;4967850;28;20467;-72
2024/03/15 06:41:53;;;;;;;12.07;11.77;;;;;;;;;;4970607;28;20458;-72
2024/03/15 06:44:23;;;;;;;11.87;11.57;;;;;;;;;;4962634;28;20526;-72
2024/03/15 06:47:15;;;;;;;12.20;11.90;;;;;;;;;;4962539;28;20511;-72
2024/03/15 06:49:48;;;;;;;12.20;11.90;;;;;;;;;;4958384;28;20469;-72
2024/03/15 06:55:01;;;;;;;11.63;11.33;;;;;;;;;;4966396;28;21502;-71
2024/03/15 06:57:29;;;;;;;12.07;11.77;;;;;;;;;;4962836;28;20494;-71
2024/03/15 06:59:57;;;;;;;14.67;14.07;;;;;;;;;;4953261;28;21107;-71
2024/03/15 07:02:24;;;;;;;13.63;13.13;;;;;;;;;;4961014;28;20499;-71
2024/03/15 07:04:52;;;;;;;14.10;13.60;;;;;;;;;;4958074;28;20987;-72
2024/03/15 07:07:19;;;;;;;14.20;13.70;;;;;;;;;;4969229;28;20459;-71
2024/03/15 07:09:47;;;;;;;14.60;14.00;;;;;;;;;;4967639;28;20823;-71
2024/03/15 07:12:15;;;;;;;14.30;13.80;;;;;;;;;;4956032;28;20867;-71
2024/03/15 07:14:43;;;;;;;14.33;13.83;;;;;;;;;;4959940;28;20997;-70
2024/03/15 07:17:10;;;;;;;13.67;13.17;;;;;;;;;;4966632;28;20468;-71
2024/03/15 07:19:37;;;;;;;14.03;13.53;;;;;;;;;;4958468;28;20469;-70
2024/03/15 07:22:05;;;;;;;14.30;13.73;;;;;;;;;;4960262;28;20476;-70
2024/03/15 07:24:34;;;;;;;14.97;14.37;;;;;;;;;;4967330;28;20469;-70
2024/03/15 07:27:04;;;;;;;15.27;14.67;;;;;;;;;;4970442;28;20469;-71
2024/03/15 07:29:32;;;;;;;15.00;14.40;;;;;;;;;;4954706;28;20535;-71
2024/03/15 07:31:59;;;;;;;15.23;14.63;;;;;;;;;;4959696;28;20475;-72
2024/03/15 07:34:26;;;;;;;15.07;14.47;;;;;;;;;;4966306;28;20491;-71
2024/03/15 07:36:56;;;;;;;15.10;14.50;;;;;;;;;;4971840;28;21058;-70
2024/03/15 07:39:28;;;;;;;15.30;14.70;;;;;;;;;;4957769;28;20468;-71
2024/03/15 07:41:56;;;;;;;15.23;14.63;;;;;;;;;;4961001;28;20470;-70
2024/03/15 07:44:23;;;;;;;14.50;13.90;;;;;;;;;;4964850;28;20471;-71
2024/03/15 07:46:51;;;;;;;14.80;14.20;;;;;;;;;;4960820;28;20471;-71
2024/03/15 07:49:19;;;;;;;14.63;14.13;;;;;;;;;;4959563;28;20489;-71
2024/03/15 07:51:47;;;;;;;14.30;13.80;;;;;;;;;;4956198;28;20467;-70
2024/03/15 07:54:14;;;;;;;12.60;12.20;;;;;;;;;;4963326;28;20472;-71
2024/03/15 07:56:43;;;;;;;12.10;11.80;;;;;;;;;;4963967;28;20801;-70
2024/03/15 07:59:13;;;;;;;10.97;10.67;;;;;;;;;;4966980;28;20872;-71
2024/03/15 08:01:41;;;;;;;10.00;9.80;;;;;;;;;;4965435;28;20497;-72
2024/03/15 08:04:09;;;;;;;9.17;8.97;;;;;;;;;;4966079;28;20468;-72
2024/03/15 08:06:37;;;;;;;9.93;9.73;;;;;;;;;;4966406;28;20466;-72
2024/03/15 08:09:04;;;;;;;9.03;8.83;;;;;;;;;;4957966;28;20474;-72
2024/03/15 08:11:33;;;;;;;9.40;9.20;;;;;;;;;;4958207;28;20473;-71
2024/03/15 08:14:02;;;;;;;9.43;9.23;;;;;;;;;;4948652;28;20478;-72
2024/03/15 08:16:34;;;;;;;10.10;9.90;;;;;;;;;;4956032;28;20862;-73
2024/03/15 08:19:03;;;;;;;10.30;10.10;;;;;;;;;;4953524;28;20587;-73
2024/03/15 08:21:31;;;;;;;10.40;10.20;;;;;;;;;;4953637;28;20957;-72
2024/03/15 08:24:01;;;;;;;10.20;10.00;;;;;;;;;;4947488;28;20817;-72
2024/03/15 08:26:29;;;;;;;11.10;10.80;;;;;;;;;;4952127;28;20607;-71
2024/03/15 08:28:57;;;;;;;10.67;10.37;;;;;;;;;;4951085;28;20948;-73
2024/03/15 08:31:24;;;;;;;11.00;10.70;;;;;;;;;;4951850;28;20509;-72
2024/03/15 08:33:51;;;;;;;10.83;10.53;;;;;;;;;;4953637;28;20478;-72
2024/03/15 08:36:19;;;;;;;11.20;10.90;;;;;;;;;;4952903;28;20492;-72
2024/03/15 08:38:46;;;;;;;11.90;11.60;;;;;;;;;;4953484;28;20473;-72
2024/03/15 08:41:13;;;;;;;11.40;11.10;;;;;;;;;;4948785;28;20469;-72
2024/03/15 08:43:40;;;;;;;11.73;11.43;;;;;;;;;;4956179;28;20469;-71
2024/03/15 08:46:07;;;;;;;11.70;11.40;;;;;;;;;;4956281;28;20464;-72
2024/03/15 08:48:35;;;;;;;11.97;11.67;;;;;;;;;;4952425;28;20484;-71
2024/03/15 08:51:03;;;;;;;12.50;12.10;;;;;;;;;;4954014;28;20474;-72
2024/03/15 08:53:32;;;;;;;12.47;12.07;;;;;;;;;;4952294;28;20838;-72
2024/03/15 08:56:00;;;;;;;13.00;12.60;;;;;;;;;;4947087;28;20499;-71
2024/03/15 08:58:27;;;;;;;12.67;12.27;;;;;;;;;;4960283;28;20913;-72
2024/03/15 09:00:55;;;;;;;13.17;12.77;;;;;;;;;;4950913;28;20496;-73
2024/03/15 09:03:23;;;;;;;13.00;12.60;;;;;;;;;;4950666;28;20470;-71
2024/03/15 09:05:50;;;;;;;13.50;13.10;;;;;;;;;;4953829;28;21080;-71
2024/03/15 09:08:19;;;;;;;13.87;13.37;;;;;;;;;;4955599;28;20473;-71
2024/03/15 09:10:46;;;;;;;13.77;13.27;;;;;;;;;;4953619;28;20564;-71
2024/03/15 09:13:13;;;;;;;13.90;13.40;;;;;;;;;;4952891;28;20998;-72
2024/03/15 09:15:41;;;;;;;13.53;13.13;;;;;;;;;;4956194;28;21036;-72
2024/03/15 09:18:09;;;;;;;13.93;13.43;;;;;;;;;;4955676;28;20489;-72
2024/03/15 09:20:39;;;;;;;13.73;13.23;;;;;;;;;;4956828;28;20936;-74
2024/03/15 09:23:06;;;;;;;14.30;13.80;;;;;;;;;;4953822;28;20540;-72
2024/03/15 09:25:33;;;;;;;14.30;13.80;;;;;;;;;;4957286;28;20903;-74
2024/03/15 09:28:01;;;;;;;14.37;13.87;;;;;;;;;;4956614;28;20511;-73
2024/03/15 09:30:31;;;;;;;14.10;13.60;;;;;;;;;;4953990;28;20559;-74
2024/03/15 09:32:59;;;;;;;14.37;13.87;;;;;;;;;;4952816;28;20467;-72
2024/03/15 09:35:27;;;;;;;14.53;14.03;;;;;;;;;;4954499;28;20750;-72
2024/03/15 09:37:54;;;;;;;14.60;14.10;;;;;;;;;;4956541;28;20475;-73
2024/03/15 09:40:23;;;;;;;14.30;13.80;;;;;;;;;;4956716;28;20985;-73
2024/03/15 09:42:52;;;;;;;14.20;13.70;;;;;;;;;;4951331;28;20480;-73
2024/03/15 09:45:21;;;;;;;14.17;13.67;;;;;;;;;;4958670;28;20507;-73
2024/03/15 09:47:49;;;;;;;14.67;14.17;;;;;;;;;;4956492;28;20562;-74
2024/03/15 09:50:17;;;;;;;14.60;14.10;;;;;;;;;;4956292;28;20567;-73
2024/03/15 09:52:45;;;;;;;14.23;13.73;;;;;;;;;;4958276;28;20912;-71
2024/03/15 09:55:13;;;;;;;14.07;13.57;;;;;;;;;;4953586;28;20496;-72
2024/03/15 09:57:43;;;;;;;14.30;13.80;;;;;;;;;;4955626;28;20836;-73
2024/03/15 10:00:11;;;;;;;14.27;13.77;;;;;;;;;;4955888;28;20480;-72
2024/03/15 10:02:38;;;;;;;14.37;13.87;;;;;;;;;;4956633;28;20872;-72
2024/03/15 10:05:07;;;;;;;14.20;13.70;;;;;;;;;;4953452;28;20471;-71
2024/03/15 10:07:35;;;;;;;14.30;13.80;;;;;;;;;;4953974;28;20872;-73
2024/03/15 10:10:10;;;;;;;14.33;13.83;;;;;;;;;;4956300;28;20465;-73
2024/03/15 10:12:37;;;;;;;14.53;14.03;;;;;;;;;;4957060;28;20469;-73
2024/03/15 10:15:04;;;;;;;14.50;14.00;;;;;;;;;;4955059;28;20816;-70
2024/03/15 10:17:32;;;;;;;14.60;14.10;;;;;;;;;;4955278;28;20515;-72
2024/03/15 10:19:59;;;;;;;15.17;14.67;;;;;;;;;;4952309;28;20469;-72
2024/03/15 10:22:27;;;;;;;15.20;14.60;;;;;;;;;;4952893;28;20470;-72
2024/03/15 10:24:54;;;;;;;14.40;13.90;;;;;;;;;;4956808;28;20464;-71
2024/03/15 10:27:22;;;;;;;14.70;14.20;;;;;;;;;;4957105;28;20468;-71
2024/03/15 10:29:50;;;;;;;14.70;14.20;;;;;;;;;;4953207;28;20844;-70
2024/03/15 10:32:17;;;;;;;14.77;14.27;;;;;;;;;;4955974;28;20511;-71
2024/03/15 10:34:45;;;;;;;14.83;14.33;;;;;;;;;;4955974;28;20479;-70
2024/03/15 10:37:13;;;;;;;14.90;14.40;;;;;;;;;;4954624;28;20503;-70
2024/03/15 10:39:40;;;;;;;14.50;14.00;;;;;;;;;;4954869;28;20515;-72
2024/03/15 10:42:08;;;;;;;14.90;14.40;;;;;;;;;;4954478;28;20594;-70
2024/03/15 10:44:35;;;;;;;14.80;14.30;;;;;;;;;;4953783;28;20838;-71
2024/03/15 10:47:02;;;;;;;14.80;14.30;;;;;;;;;;4955312;28;21019;-71
2024/03/15 10:49:29;;;;;;;14.80;14.30;;;;;;;;;;4953894;28;20501;-71
2024/03/15 10:51:56;;;;;;;14.30;13.80;;;;;;;;;;4954908;28;20552;-72
2024/03/15 10:54:23;;;;;;;14.30;13.80;;;;;;;;;;4955270;28;20467;-72
2024/03/15 10:56:51;;;;;;;14.30;13.80;;;;;;;;;;4952687;28;20526;-72
2024/03/15 10:59:18;;;;;;;14.87;14.37;;;;;;;;;;4955417;28;20479;-72
2024/03/15 11:01:45;;;;;;;14.60;14.10;;;;;;;;;;4954781;28;20501;-73
2024/03/15 11:04:12;;;;;;;14.60;14.10;;;;;;;;;;4949482;28;20547;-72
2024/03/15 11:06:43;;;;;;;14.60;14.10;;;;;;;;;;4954656;28;20468;-72
2024/03/15 11:09:24;;;;;;;14.90;14.40;;;;;;;;;;4950855;28;20481;-72
2024/03/15 11:12:00;;;;;;;14.53;14.03;;;;;;;;;;4952636;28;20465;-73
2024/03/15 11:14:27;;;;;;;14.60;14.10;;;;;;;;;;4955202;28;20475;-72
2024/03/15 11:16:58;;;;;;;14.80;14.30;;;;;;;;;;4955149;28;20498;-73
2024/03/15 11:19:25;;;;;;;14.50;14.00;;;;;;;;;;4956046;28;20519;-73
2024/03/15 11:22:04;;;;;;;14.40;13.90;;;;;;;;;;4951852;28;21039;-72
2024/03/15 11:24:41;;;;;;;14.83;14.33;;;;;;;;;;4950831;28;20483;-73
2024/03/15 11:27:12;;;;;;;14.80;14.30;;;;;;;;;;4955184;28;20467;-73
2024/03/15 11:29:40;;;;;;;14.70;14.20;;;;;;;;;;4956184;28;20512;-73
2024/03/15 11:32:10;;;;;;;14.60;14.10;;;;;;;;;;4951596;28;20838;-73
2024/03/15 11:34:38;;;;;;;14.50;14.00;;;;;;;;;;4954987;28;20671;-70
2024/03/15 11:37:05;;;;;;;14.50;14.00;;;;;;;;;;4954761;28;20490;-70
2024/03/15 11:39:32;;;;;;;14.70;14.20;;;;;;;;;;4955643;28;20498;-69
2024/03/15 11:42:03;;;;;;;14.60;14.10;;;;;;;;;;4951705;28;20466;-70
2024/03/15 11:44:30;;;;;;;14.70;14.20;;;;;;;;;;4950209;28;20461;-71
2024/03/15 11:46:57;;;;;;;14.60;14.10;;;;;;;;;;4954043;28;20528;-69
2024/03/15 11:49:25;;;;;;;14.10;13.60;;;;;;;;;;4954577;28;20462;-70
2024/03/15 11:51:58;;;;;;;13.97;13.47;;;;;;;;;;4954892;28;20468;-70
2024/03/15 11:54:26;;;;;;;14.13;13.63;;;;;;;;;;4953238;28;20519;-70
2024/03/15 11:57:02;;;;;;;14.63;14.13;;;;;;;;;;4951689;28;20583;-71
2024/03/15 11:59:31;;;;;;;14.30;13.80;;;;;;;;;;4950850;28;20492;-69
2024/03/15 12:01:58;;;;;;;14.30;13.80;;;;;;;;;;4954578;28;20499;-69
2024/03/15 12:04:32;;;;;;;14.67;14.17;;;;;;;;;;4954320;28;20556;-70
2024/03/15 12:06:59;;;;;;;14.63;14.13;;;;;;;;;;4954631;28;20558;-70
2024/03/15 12:09:27;;;;;;;14.70;14.20;;;;;;;;;;4953736;28;20471;-72
2024/03/15 12:11:54;;;;;;;14.80;14.30;;;;;;;;;;4951403;28;20468;-72
2024/03/15 12:14:21;;;;;;;14.60;14.10;;;;;;;;;;4948566;28;20475;-71
2024/03/15 12:16:48;;;;;;;14.70;14.20;;;;;;;;;;4952809;28;20502;-72
2024/03/15 12:19:16;;;;;;;14.50;14.00;;;;;;;;;;4953755;28;20928;-72
2024/03/15 12:21:44;;;;;;;14.60;14.10;;;;;;;;;;4954906;28;20475;-72
2024/03/15 12:24:11;;;;;;;15.10;14.53;;;;;;;;;;4950121;28;20567;-72
2024/03/15 12:26:38;;;;;;;14.40;13.90;;;;;;;;;;4951105;28;20960;-72
2024/03/15 12:29:05;;;;;;;14.73;14.23;;;;;;;;;;4955012;28;20523;-72
2024/03/15 12:31:36;;;;;;;14.97;14.47;;;;;;;;;;4970539;28;20476;-71
2024/03/15 12:34:05;;;;;;;14.70;14.20;;;;;;;;;;4954658;28;20469;-72
2024/03/15 12:36:32;;;;;;;14.80;14.30;;;;;;;;;;4954743;28;20948;-72
2024/03/15 12:39:00;;;;;;;14.70;14.20;;;;;;;;;;4953881;28;20502;-70
2024/03/15 12:41:27;;;;;;;15.20;14.60;;;;;;;;;;4953094;28;20910;-71
2024/03/15 12:43:54;;;;;;;15.10;14.50;;;;;;;;;;4953933;28;20994;-71
2024/03/15 12:46:21;;;;;;;14.70;14.20;;;;;;;;;;4961096;28;20462;-70
2024/03/15 12:48:49;;;;;;;15.57;14.97;;;;;;;;;;4954771;28;20476;-72
2024/03/15 12:51:16;;;;;;;14.47;13.97;;;;;;;;;;4958283;28;20615;-71
2024/03/15 12:53:43;;;;;;;14.90;14.40;;;;;;;;;;4957357;28;20478;-72
2024/03/15 12:56:10;;;;;;;14.73;14.23;;;;;;;;;;4954708;28;20624;-70
2024/03/15 12:58:37;;;;;;;14.80;14.30;;;;;;;;;;4956495;28;20479;-71
2024/03/15 13:01:05;;;;;;;14.80;14.30;;;;;;;;;;4955773;28;20492;-70
2024/03/15 13:03:34;;;;;;;15.00;14.50;;;;;;;;;;4943651;28;20463;-72
2024/03/15 13:06:01;;;;;;;14.90;14.40;;;;;;;;;;4955842;28;20731;-71
2024/03/15 13:08:28;;;;;;;15.40;14.80;;;;;;;;;;4963956;28;20483;-71
2024/03/15 13:10:55;;;;;;;15.00;14.50;;;;;;;;;;4949927;28;20489;-70
2024/03/15 13:13:23;;;;;;;15.10;14.60;;;;;;;;;;4954090;28;20465;-71
2024/03/15 13:15:50;;;;;;;15.17;14.67;;;;;;;;;;4956669;28;20833;-71
2024/03/15 13:18:18;;;;;;;14.80;14.30;;;;;;;;;;4957863;28;20462;-68
2024/03/15 13:20:46;;;;;;;15.00;14.50;;;;;;;;;;4958163;28;20465;-70
2024/03/15 13:23:13;;;;;;;14.87;14.37;;;;;;;;;;4949998;28;20511;-70
2024/03/15 13:25:40;;;;;;;15.03;14.53;;;;;;;;;;4956468;28;20475;-68
2024/03/15 13:28:07;;;;;;;17.13;16.40;;;;;;;;;;4954828;28;21005;-70
2024/03/15 13:30:35;;;;;;;18.90;18.00;;;;;;;;;;4958004;28;20472;-70
2024/03/15 13:33:02;;;;;;;20.20;19.10;;;;;;;;;;4954501;28;20484;-69
2024/03/15 13:35:30;;;;;;;20.00;18.90;;;;;;;;;;4960399;28;20833;-69
2024/03/15 13:37:57;;;;;;;21.70;20.20;;;;;;;;;;4954633;28;20510;-68
2024/03/15 13:40:25;;;;;;;19.30;18.10;;;;;;;;;;4956801;28;20547;-71
2024/03/15 13:42:52;;;;;;;18.63;17.43;;;;;;;;;;4951728;28;20476;-69
2024/03/15 13:45:19;;;;;;;17.50;16.50;;;;;;;;;;4955882;28;20546;-68
2024/03/15 13:47:47;;;;;;;17.03;16.13;;;;;;;;;;4969428;28;20882;-70
2024/03/15 13:50:16;;;;;;;15.50;14.80;;;;;;;;;;4956688;28;20450;-71
2024/03/15 13:52:43;;;;;;;14.50;13.90;;;;;;;;;;4958157;28;20472;-71
2024/03/15 13:55:11;;;;;;;14.70;14.10;;;;;;;;;;4954550;28;20526;-69
2024/03/15 13:57:38;;;;;;;14.67;14.07;;;;;;;;;;4952285;28;20583;-70
2024/03/15 14:00:31;;;;;;;16.00;15.30;;;;;;;;;;4955510;28;20489;-70
2024/03/15 14:02:54;;;;;;;15.40;14.80;;;;;;;;;;4953686;28;20466;-72
2024/03/15 14:05:22;;;;;;;16.30;15.60;;;;;;;;;;4956437;28;20451;-70
2024/03/15 14:07:49;;;;;;;16.60;15.90;;;;;;;;;;4962711;28;20457;-70
2024/03/15 14:10:18;;;;;;;16.13;15.53;;;;;;;;;;4954493;28;20471;-70
2024/03/15 14:12:45;;;;;;;15.17;14.57;;;;;;;;;;4950495;28;20489;-69
2024/03/15 14:15:18;;;;;;;15.47;14.87;;;;;;;;;;4952375;28;21041;-70
2024/03/15 14:17:47;;;;;;;14.70;14.20;;;;;;;;;;4954733;28;20497;-69
2024/03/15 14:20:14;;;;;;;14.73;14.23;;;;;;;;;;4955906;28;20468;-70
2024/03/15 14:22:43;;;;;;;15.00;14.50;;;;;;;;;;4956698;28;20468;-71
2024/03/15 14:25:15;;;;;;;14.90;14.40;;;;;;;;;;4954402;28;20466;-70